Time;durP1;ratioP1;P1;durP2;ratioP2;P2;SDS_P1;SDS_P2;PMS_P1;PMS_P2;Temp;Humidity;BMP_temperature;BMP_pressure;BME280_temperature;BME280_humidity;BME280_pressure;Samples;Min_cycle;Max_cycle;Signal;HPM_P1;HPM_P2
2022/11/01 00:00:18;;;;;;;20.17;14.90;;;;;;;;;;4941455;28;20043;-77
2022/11/01 00:02:44;;;;;;;20.80;14.10;;;;;;;;;;4947647;28;20471;-77
2022/11/01 00:05:10;;;;;;;19.13;13.98;;;;;;;;;;4936996;28;20526;-78
2022/11/01 00:07:36;;;;;;;18.55;13.82;;;;;;;;;;4942760;28;20078;-77
2022/11/01 00:10:02;;;;;;;18.40;13.25;;;;;;;;;;4943814;28;20075;-77
2022/11/01 00:12:29;;;;;;;20.27;13.60;;;;;;;;;;4945724;28;20059;-77
2022/11/01 00:14:55;;;;;;;16.58;12.52;;;;;;;;;;4948650;28;20082;-77
2022/11/01 00:17:21;;;;;;;19.20;12.18;;;;;;;;;;4939912;28;20121;-78
2022/11/01 00:19:50;;;;;;;15.82;12.00;;;;;;;;;;4976973;28;20109;-77
2022/11/01 00:22:16;;;;;;;17.33;12.55;;;;;;;;;;4945648;28;20107;-77
2022/11/01 00:24:42;;;;;;;20.83;11.77;;;;;;;;;;4943025;28;20079;-77
2022/11/01 00:27:19;;;;;;;15.43;11.00;;;;;;;;;;4942125;28;20566;-77
2022/11/01 00:29:45;;;;;;;16.83;11.32;;;;;;;;;;4937352;28;20048;-78
2022/11/01 00:32:11;;;;;;;18.33;11.68;;;;;;;;;;4978143;28;20077;-78
2022/11/01 00:34:37;;;;;;;18.65;11.80;;;;;;;;;;4972304;28;20491;-79
2022/11/01 00:37:03;;;;;;;17.48;10.77;;;;;;;;;;4945581;28;20098;-77
2022/11/01 00:39:29;;;;;;;17.02;10.88;;;;;;;;;;4945752;28;20046;-77
2022/11/01 00:41:55;;;;;;;14.52;10.52;;;;;;;;;;4944648;28;20116;-77
2022/11/01 00:44:21;;;;;;;17.02;11.18;;;;;;;;;;4946701;28;20087;-77
2022/11/01 00:46:47;;;;;;;15.80;11.18;;;;;;;;;;4949931;28;20047;-77
2022/11/01 00:49:13;;;;;;;16.70;10.40;;;;;;;;;;4940925;28;20062;-77
2022/11/01 00:51:39;;;;;;;13.57;10.00;;;;;;;;;;4944323;28;20379;-76
2022/11/01 00:54:05;;;;;;;18.63;10.80;;;;;;;;;;4944631;28;20044;-76
2022/11/01 00:56:34;;;;;;;14.55;10.73;;;;;;;;;;4938268;28;20067;-77
2022/11/01 00:59:00;;;;;;;17.77;10.25;;;;;;;;;;4943638;28;20049;-77
2022/11/01 01:01:26;;;;;;;15.45;10.10;;;;;;;;;;4974510;28;20059;-77
2022/11/01 01:03:52;;;;;;;12.65;10.52;;;;;;;;;;4942650;28;20090;-77
2022/11/01 01:06:18;;;;;;;15.57;10.15;;;;;;;;;;4936154;28;20389;-76
2022/11/01 01:08:44;;;;;;;16.55;10.32;;;;;;;;;;4931324;28;20128;-77
2022/11/01 01:11:10;;;;;;;14.52;10.02;;;;;;;;;;4983028;28;20039;-77
2022/11/01 01:13:36;;;;;;;15.65;10.57;;;;;;;;;;4978326;28;20043;-77
2022/11/01 01:16:06;;;;;;;14.10;10.00;;;;;;;;;;4945351;28;20131;-77
2022/11/01 01:18:33;;;;;;;17.58;10.88;;;;;;;;;;4943245;28;20071;-77
2022/11/01 01:21:00;;;;;;;14.82;11.00;;;;;;;;;;4942356;28;20090;-76
2022/11/01 01:23:26;;;;;;;18.67;10.20;;;;;;;;;;4948109;28;20059;-77
2022/11/01 01:25:52;;;;;;;15.45;10.13;;;;;;;;;;4945243;28;20046;-77
2022/11/01 01:28:18;;;;;;;16.67;9.23;;;;;;;;;;4977606;28;20484;-77
2022/11/01 01:30:44;;;;;;;14.75;9.85;;;;;;;;;;4944840;28;20043;-77
2022/11/01 01:33:10;;;;;;;15.82;10.55;;;;;;;;;;4937567;28;20477;-77
2022/11/01 01:35:37;;;;;;;12.80;10.32;;;;;;;;;;4973681;28;20047;-76
2022/11/01 01:38:03;;;;;;;17.48;10.27;;;;;;;;;;4974273;28;20164;-77
2022/11/01 01:40:30;;;;;;;13.63;9.27;;;;;;;;;;4948634;28;20219;-77
2022/11/01 01:42:56;;;;;;;14.27;9.77;;;;;;;;;;4952975;28;20384;-77
2022/11/01 01:45:29;;;;;;;18.10;10.45;;;;;;;;;;4946614;28;20446;-77
2022/11/01 01:47:57;;;;;;;13.80;9.60;;;;;;;;;;4947938;28;20047;-78
2022/11/01 01:50:29;;;;;;;14.07;9.70;;;;;;;;;;4973472;28;20051;-78
2022/11/01 01:53:01;;;;;;;13.52;9.38;;;;;;;;;;4943778;28;20515;-77
2022/11/01 01:55:33;;;;;;;17.27;10.15;;;;;;;;;;4940288;28;20047;-77
2022/11/01 01:57:59;;;;;;;14.30;9.30;;;;;;;;;;4947719;28;20491;-77
2022/11/01 02:00:25;;;;;;;13.68;9.93;;;;;;;;;;4942789;28;20063;-77
2022/11/01 02:02:51;;;;;;;15.57;9.35;;;;;;;;;;4951911;28;20452;-77
2022/11/01 02:05:21;;;;;;;11.80;9.30;;;;;;;;;;4952971;28;20048;-77
2022/11/01 02:07:47;;;;;;;14.85;8.98;;;;;;;;;;4946687;28;20404;-77
2022/11/01 02:10:13;;;;;;;13.90;8.88;;;;;;;;;;4952074;28;20047;-77
2022/11/01 02:12:44;;;;;;;14.43;9.88;;;;;;;;;;4946489;28;20499;-77
2022/11/01 02:15:12;;;;;;;13.32;9.32;;;;;;;;;;4945865;28;20039;-77
2022/11/01 02:18:03;;;;;;;17.63;9.90;;;;;;;;;;4949657;28;20114;-78
2022/11/01 02:20:39;;;;;;;13.70;9.10;;;;;;;;;;4975003;28;20145;-78
2022/11/01 02:23:24;;;;;;;11.70;9.07;;;;;;;;;;4946811;28;20043;-77
2022/11/01 02:26:08;;;;;;;14.95;9.88;;;;;;;;;;4937305;28;20547;-77
2022/11/01 02:28:37;;;;;;;13.77;9.32;;;;;;;;;;4942294;28;20479;-77
2022/11/01 02:31:12;;;;;;;13.52;8.68;;;;;;;;;;4942997;28;20185;-78
2022/11/01 02:33:41;;;;;;;14.27;8.80;;;;;;;;;;4981481;28;20090;-78
2022/11/01 02:36:09;;;;;;;12.88;8.90;;;;;;;;;;4944919;28;20178;-77
2022/11/01 02:38:39;;;;;;;12.13;8.70;;;;;;;;;;4948881;28;20604;-77
2022/11/01 02:41:06;;;;;;;14.82;8.85;;;;;;;;;;4947179;28;20051;-77
2022/11/01 02:43:44;;;;;;;13.75;8.57;;;;;;;;;;4976804;28;20047;-77
2022/11/01 02:48:58;;;;;;;15.27;8.50;;;;;;;;;;4976796;28;21331;-78
2022/11/01 02:51:25;;;;;;;14.07;8.88;;;;;;;;;;4978483;28;20404;-78
2022/11/01 02:53:51;;;;;;;11.90;8.27;;;;;;;;;;4953114;29;20078;-77
2022/11/01 02:56:18;;;;;;;10.70;7.32;;;;;;;;;;4950078;28;20106;-78
2022/11/01 02:58:45;;;;;;;13.57;8.32;;;;;;;;;;4947832;28;20043;-77
2022/11/01 03:01:15;;;;;;;10.02;7.63;;;;;;;;;;4945305;28;20134;-77
2022/11/01 03:03:42;;;;;;;12.00;7.60;;;;;;;;;;4946313;28;20110;-78
2022/11/01 03:06:13;;;;;;;12.95;7.82;;;;;;;;;;4948917;28;20129;-78
2022/11/01 03:08:42;;;;;;;12.45;7.85;;;;;;;;;;4948487;28;20050;-78
2022/11/01 03:11:26;;;;;;;11.07;7.57;;;;;;;;;;4941248;28;20448;-78
2022/11/01 03:14:04;;;;;;;14.55;8.05;;;;;;;;;;4945449;28;20078;-77
2022/11/01 03:16:35;;;;;;;13.25;8.13;;;;;;;;;;4945971;28;20051;-78
2022/11/01 03:19:28;;;;;;;10.45;7.78;;;;;;;;;;4944131;28;20057;-78
2022/11/01 03:21:59;;;;;;;15.50;8.23;;;;;;;;;;4945080;28;20051;-77
2022/11/01 03:24:34;;;;;;;13.60;7.60;;;;;;;;;;4944255;28;20138;-78
2022/11/01 03:27:12;;;;;;;12.85;7.78;;;;;;;;;;4948695;28;20555;-79
2022/11/01 03:29:43;;;;;;;14.20;7.30;;;;;;;;;;4943926;28;20039;-77
2022/11/01 03:32:09;;;;;;;11.13;8.05;;;;;;;;;;4949622;28;20043;-78
2022/11/01 03:34:36;;;;;;;12.00;8.05;;;;;;;;;;4942956;28;20071;-79
2022/11/01 03:37:05;;;;;;;10.55;7.78;;;;;;;;;;4947347;28;20400;-79
2022/11/01 03:39:33;;;;;;;10.48;8.20;;;;;;;;;;4940850;28;20067;-79
2022/11/01 03:42:05;;;;;;;11.00;8.13;;;;;;;;;;4970751;28;20051;-79
2022/11/01 03:44:39;;;;;;;11.85;8.65;;;;;;;;;;4945986;28;20035;-78
2022/11/01 03:47:05;;;;;;;11.00;8.43;;;;;;;;;;4945962;28;20090;-79
2022/11/01 03:49:31;;;;;;;14.40;8.73;;;;;;;;;;4944688;28;20493;-78
2022/11/01 03:51:57;;;;;;;12.85;8.38;;;;;;;;;;4946472;28;20043;-78
2022/11/01 03:54:23;;;;;;;12.27;8.00;;;;;;;;;;4948561;28;20043;-78
2022/11/01 03:56:49;;;;;;;13.40;7.50;;;;;;;;;;4943641;28;20101;-78
2022/11/01 03:59:15;;;;;;;10.88;7.70;;;;;;;;;;4972618;28;20067;-78
2022/11/01 04:01:41;;;;;;;13.05;7.28;;;;;;;;;;4943373;28;20106;-79
2022/11/01 04:04:07;;;;;;;12.27;7.82;;;;;;;;;;4943479;28;20427;-79
2022/11/01 04:06:33;;;;;;;10.90;8.05;;;;;;;;;;4946065;28;20131;-79
2022/11/01 04:08:59;;;;;;;13.23;7.60;;;;;;;;;;4945417;28;20047;-80
2022/11/01 04:11:25;;;;;;;9.15;6.97;;;;;;;;;;4946105;28;20047;-81
2022/11/01 04:13:51;;;;;;;10.65;8.10;;;;;;;;;;4978833;28;20043;-81
2022/11/01 04:21:46;;;;;;;9.05;7.63;;;;;;;;;;4950846;28;20051;-80
2022/11/01 04:24:19;;;;;;;10.82;8.25;;;;;;;;;;4942387;28;20134;-80
2022/11/01 04:26:45;;;;;;;9.13;7.30;;;;;;;;;;4948673;28;20111;-80
2022/11/01 04:29:11;;;;;;;12.02;7.13;;;;;;;;;;4941929;28;20122;-80
2022/11/01 04:31:37;;;;;;;9.88;7.40;;;;;;;;;;4939988;28;20126;-80
2022/11/01 04:34:04;;;;;;;9.27;6.88;;;;;;;;;;4970039;28;20143;-81
2022/11/01 04:36:31;;;;;;;10.82;6.45;;;;;;;;;;4947611;28;20102;-80
2022/11/01 04:38:57;;;;;;;10.98;6.80;;;;;;;;;;4947602;28;20048;-80
2022/11/01 04:41:27;;;;;;;10.40;7.30;;;;;;;;;;4975644;28;20078;-80
2022/11/01 04:43:54;;;;;;;11.02;6.28;;;;;;;;;;4974357;28;20090;-80
2022/11/01 04:46:24;;;;;;;9.50;5.40;;;;;;;;;;4945893;28;20049;-80
2022/11/01 04:48:50;;;;;;;7.03;4.57;;;;;;;;;;4939455;28;20035;-81
2022/11/01 04:51:16;;;;;;;8.60;3.88;;;;;;;;;;4947734;28;20074;-80
2022/11/01 04:53:42;;;;;;;4.35;3.53;;;;;;;;;;4974460;28;20079;-80
2022/11/01 04:56:12;;;;;;;6.30;3.35;;;;;;;;;;4941278;28;20047;-81
2022/11/01 04:58:38;;;;;;;5.68;3.08;;;;;;;;;;4971882;28;20051;-82
2022/11/01 05:01:07;;;;;;;9.43;3.17;;;;;;;;;;4943550;28;20057;-80
2022/11/01 05:03:34;;;;;;;7.82;2.95;;;;;;;;;;4944456;28;20580;-80
2022/11/01 05:06:00;;;;;;;8.55;2.85;;;;;;;;;;4975774;28;20049;-80
2022/11/01 05:08:26;;;;;;;8.02;2.95;;;;;;;;;;4945124;28;20517;-79
2022/11/01 05:10:53;;;;;;;14.95;3.80;;;;;;;;;;4970931;28;20047;-80
2022/11/01 05:13:19;;;;;;;9.50;3.17;;;;;;;;;;4945237;28;20403;-80
2022/11/01 05:15:45;;;;;;;7.20;3.00;;;;;;;;;;4949699;28;20682;-80
2022/11/01 05:18:12;;;;;;;12.85;3.30;;;;;;;;;;4944460;28;20126;-79
2022/11/01 05:20:37;;;;;;;8.35;2.90;;;;;;;;;;4948923;28;20038;-79
2022/11/01 05:23:04;;;;;;;9.15;2.80;;;;;;;;;;4941372;28;20099;-79
2022/11/01 05:25:31;;;;;;;9.90;2.70;;;;;;;;;;4941117;28;20047;-79
2022/11/01 05:28:00;;;;;;;12.57;3.17;;;;;;;;;;4943784;28;20062;-79
2022/11/01 05:30:26;;;;;;;7.47;2.80;;;;;;;;;;4943266;28;20051;-80
2022/11/01 05:32:59;;;;;;;11.25;2.40;;;;;;;;;;4945709;28;20039;-80
2022/11/01 05:35:25;;;;;;;8.25;2.55;;;;;;;;;;4966891;28;20150;-80
2022/11/01 05:37:51;;;;;;;6.68;2.72;;;;;;;;;;4974382;28;20043;-79
2022/11/01 05:40:17;;;;;;;8.98;2.88;;;;;;;;;;4943970;28;20047;-79
2022/11/01 05:42:43;;;;;;;10.32;2.72;;;;;;;;;;4942882;28;20392;-80
2022/11/01 05:45:10;;;;;;;6.90;2.42;;;;;;;;;;4943440;28;20111;-80
2022/11/01 05:47:39;;;;;;;6.38;2.30;;;;;;;;;;4946705;28;20051;-79
2022/11/01 05:50:05;;;;;;;7.63;2.60;;;;;;;;;;4947942;28;20052;-80
2022/11/01 05:52:31;;;;;;;6.63;2.70;;;;;;;;;;4982209;28;20127;-79
2022/11/01 05:54:57;;;;;;;9.68;2.40;;;;;;;;;;4946927;28;20063;-80
2022/11/01 05:57:23;;;;;;;11.20;2.50;;;;;;;;;;4952490;28;20051;-80
2022/11/01 05:59:52;;;;;;;6.97;2.50;;;;;;;;;;4946117;28;20095;-80
2022/11/01 06:02:18;;;;;;;7.32;2.53;;;;;;;;;;4952695;28;20565;-80
2022/11/01 06:04:44;;;;;;;7.63;2.58;;;;;;;;;;4955493;28;20058;-80
2022/11/01 06:07:10;;;;;;;5.50;2.20;;;;;;;;;;4951605;28;20110;-79
2022/11/01 06:09:36;;;;;;;8.55;2.70;;;;;;;;;;4981843;28;20047;-79
2022/11/01 06:12:02;;;;;;;9.68;2.42;;;;;;;;;;4981181;28;20049;-79
2022/11/01 06:14:30;;;;;;;9.15;4.47;;;;;;;;;;4947866;28;20059;-79
2022/11/01 06:16:56;;;;;;;16.02;4.20;;;;;;;;;;4950830;28;20054;-81
2022/11/01 06:19:23;;;;;;;7.45;2.90;;;;;;;;;;4951756;28;20551;-81
2022/11/01 06:21:49;;;;;;;9.80;3.17;;;;;;;;;;4950373;28;20150;-81
2022/11/01 06:24:14;;;;;;;14.43;3.20;;;;;;;;;;4949871;28;20129;-80
2022/11/01 06:26:41;;;;;;;10.27;2.80;;;;;;;;;;4978709;28;20043;-83
2022/11/01 06:29:06;;;;;;;10.20;2.78;;;;;;;;;;4944079;28;20047;-80
2022/11/01 06:31:36;;;;;;;7.80;2.90;;;;;;;;;;4937589;28;20399;-81
2022/11/01 06:34:02;;;;;;;10.55;3.20;;;;;;;;;;4945864;28;20031;-81
2022/11/01 06:36:28;;;;;;;8.57;2.60;;;;;;;;;;4942975;28;20989;-80
2022/11/01 06:38:54;;;;;;;12.40;2.95;;;;;;;;;;4941038;28;20046;-80
2022/11/01 06:41:20;;;;;;;9.85;2.72;;;;;;;;;;4938205;28;20039;-80
2022/11/01 06:43:48;;;;;;;9.73;2.63;;;;;;;;;;4928892;28;20047;-80
2022/11/01 06:46:14;;;;;;;12.48;3.92;;;;;;;;;;4942421;28;20059;-80
2022/11/01 06:48:40;;;;;;;10.63;2.92;;;;;;;;;;4943910;28;20503;-79
2022/11/01 06:51:06;;;;;;;14.55;3.05;;;;;;;;;;4977084;28;20102;-79
2022/11/01 06:53:32;;;;;;;11.93;3.35;;;;;;;;;;4947722;28;20050;-80
2022/11/01 06:55:59;;;;;;;10.60;2.95;;;;;;;;;;4946729;28;20039;-80
2022/11/01 06:58:25;;;;;;;9.65;2.60;;;;;;;;;;4944912;28;20063;-80
2022/11/01 07:00:51;;;;;;;11.75;2.70;;;;;;;;;;4946623;28;20153;-80
2022/11/01 07:03:18;;;;;;;10.20;2.50;;;;;;;;;;4947727;28;20039;-80
2022/11/01 07:05:44;;;;;;;8.35;2.60;;;;;;;;;;4976647;28;20051;-79
2022/11/01 07:08:11;;;;;;;6.28;2.67;;;;;;;;;;4946779;28;20044;-79
2022/11/01 07:10:41;;;;;;;12.32;2.80;;;;;;;;;;4951349;28;20372;-79
2022/11/01 07:13:09;;;;;;;7.20;2.30;;;;;;;;;;4953466;28;20565;-80
2022/11/01 07:15:35;;;;;;;8.73;2.55;;;;;;;;;;4948335;28;20047;-79
2022/11/01 07:18:03;;;;;;;8.23;2.63;;;;;;;;;;4950330;28;20130;-80
2022/11/01 07:20:30;;;;;;;10.05;2.85;;;;;;;;;;4949483;28;20047;-80
2022/11/01 07:23:03;;;;;;;9.75;2.80;;;;;;;;;;4947216;28;20060;-80
2022/11/01 07:25:29;;;;;;;9.88;2.90;;;;;;;;;;4944936;28;20051;-80
2022/11/01 07:27:55;;;;;;;10.65;2.97;;;;;;;;;;4950744;28;20070;-79
2022/11/01 07:30:21;;;;;;;9.13;2.90;;;;;;;;;;4948511;29;20090;-79
2022/11/01 07:32:48;;;;;;;12.82;2.80;;;;;;;;;;4941393;28;20094;-80
2022/11/01 07:35:14;;;;;;;13.40;3.28;;;;;;;;;;4975929;28;20939;-81
2022/11/01 07:37:40;;;;;;;13.98;3.22;;;;;;;;;;4945033;28;20047;-80
2022/11/01 07:40:06;;;;;;;13.00;3.83;;;;;;;;;;4948711;28;20135;-79
2022/11/01 07:42:32;;;;;;;13.05;3.28;;;;;;;;;;4951329;28;20054;-81
2022/11/01 07:45:01;;;;;;;16.88;3.60;;;;;;;;;;4969094;28;20518;-81
2022/11/01 07:47:27;;;;;;;16.45;3.78;;;;;;;;;;4941020;28;20051;-81
2022/11/01 07:49:53;;;;;;;13.38;4.07;;;;;;;;;;4952610;29;20468;-80
2022/11/01 07:52:19;;;;;;;13.93;3.95;;;;;;;;;;4975000;28;20395;-79
2022/11/01 07:54:45;;;;;;;14.95;4.03;;;;;;;;;;4938194;28;20188;-80
2022/11/01 07:57:11;;;;;;;14.98;4.03;;;;;;;;;;4942922;28;20083;-80
2022/11/01 07:59:37;;;;;;;15.05;4.53;;;;;;;;;;4951921;29;20051;-79
2022/11/01 08:02:03;;;;;;;17.15;4.95;;;;;;;;;;4953835;29;20066;-79
2022/11/01 08:04:29;;;;;;;13.85;4.03;;;;;;;;;;4949470;28;20052;-80
2022/11/01 08:06:55;;;;;;;17.52;4.70;;;;;;;;;;4938452;28;20055;-79
2022/11/01 08:09:21;;;;;;;22.15;4.78;;;;;;;;;;4942798;28;20048;-80
2022/11/01 08:11:47;;;;;;;18.13;4.15;;;;;;;;;;4933369;28;20098;-80
2022/11/01 08:14:13;;;;;;;15.70;3.95;;;;;;;;;;4934502;29;20062;-81
2022/11/01 08:16:39;;;;;;;16.45;4.45;;;;;;;;;;4936309;29;20043;-80
2022/11/01 08:19:05;;;;;;;14.75;4.40;;;;;;;;;;4934789;29;20381;-80
2022/11/01 08:21:31;;;;;;;15.38;4.53;;;;;;;;;;4933063;28;20043;-81
2022/11/01 08:23:57;;;;;;;18.05;4.93;;;;;;;;;;4952630;29;20047;-81
2022/11/01 08:26:23;;;;;;;19.63;4.78;;;;;;;;;;4953357;29;20521;-81
2022/11/01 08:28:49;;;;;;;18.98;4.70;;;;;;;;;;4948212;29;20393;-80
2022/11/01 08:31:15;;;;;;;24.27;4.90;;;;;;;;;;4945730;29;20050;-80
2022/11/01 08:33:41;;;;;;;20.15;4.60;;;;;;;;;;4950308;28;20043;-81
2022/11/01 08:36:07;;;;;;;13.25;4.20;;;;;;;;;;4958860;28;20043;-80
2022/11/01 08:38:33;;;;;;;15.65;4.32;;;;;;;;;;4974659;28;20051;-81
2022/11/01 08:40:59;;;;;;;18.92;5.15;;;;;;;;;;4968704;28;20276;-81
2022/11/01 08:43:25;;;;;;;15.02;4.40;;;;;;;;;;4941527;28;20058;-82
2022/11/01 08:45:51;;;;;;;18.90;5.38;;;;;;;;;;4972077;28;20044;-82
2022/11/01 08:48:18;;;;;;;20.75;5.45;;;;;;;;;;4942136;28;20080;-82
2022/11/01 08:50:44;;;;;;;17.90;4.78;;;;;;;;;;4950333;28;20047;-81
2022/11/01 08:53:11;;;;;;;17.42;4.93;;;;;;;;;;4949548;28;20047;-80
2022/11/01 08:55:37;;;;;;;19.67;4.95;;;;;;;;;;4979941;28;20135;-82
2022/11/01 08:58:03;;;;;;;17.52;4.53;;;;;;;;;;4946971;28;20046;-81
2022/11/01 09:00:29;;;;;;;22.75;5.22;;;;;;;;;;4949923;28;20126;-83
2022/11/01 09:02:55;;;;;;;20.45;6.05;;;;;;;;;;4945234;28;20131;-81
2022/11/01 09:05:21;;;;;;;18.13;5.13;;;;;;;;;;4966287;28;20048;-82
2022/11/01 09:07:48;;;;;;;24.45;5.35;;;;;;;;;;4982762;28;20059;-81
2022/11/01 09:10:17;;;;;;;19.08;4.88;;;;;;;;;;4942814;28;20491;-82
2022/11/01 09:12:43;;;;;;;24.38;6.13;;;;;;;;;;4942949;28;20051;-80
2022/11/01 09:15:10;;;;;;;19.38;5.05;;;;;;;;;;4971843;28;20753;-81
2022/11/01 09:17:36;;;;;;;19.20;5.13;;;;;;;;;;4968231;28;20098;-82
2022/11/01 09:20:03;;;;;;;19.65;4.82;;;;;;;;;;4961678;28;20052;-81
2022/11/01 09:22:29;;;;;;;11.45;4.10;;;;;;;;;;4954958;28;20055;-81
2022/11/01 09:24:57;;;;;;;20.38;4.88;;;;;;;;;;4947832;28;20050;-80
2022/11/01 09:27:23;;;;;;;22.17;5.38;;;;;;;;;;4943530;28;20480;-82
2022/11/01 09:29:49;;;;;;;18.92;5.22;;;;;;;;;;4943597;28;20044;-81
2022/11/01 09:32:16;;;;;;;21.30;5.35;;;;;;;;;;4962750;28;20134;-80
2022/11/01 09:34:42;;;;;;;21.13;5.15;;;;;;;;;;4944902;28;20518;-80
2022/11/01 09:37:08;;;;;;;22.50;5.53;;;;;;;;;;4952583;28;20399;-81
2022/11/01 09:39:34;;;;;;;20.02;4.63;;;;;;;;;;4972715;28;20122;-81
2022/11/01 09:42:06;;;;;;;16.65;4.50;;;;;;;;;;4942385;28;20051;-82
2022/11/01 09:44:35;;;;;;;15.70;4.88;;;;;;;;;;4944882;28;20061;-82
2022/11/01 09:47:04;;;;;;;15.43;4.70;;;;;;;;;;4949495;28;20054;-82
2022/11/01 09:49:37;;;;;;;11.23;4.40;;;;;;;;;;4980747;28;20550;-81
2022/11/01 09:52:05;;;;;;;17.00;4.72;;;;;;;;;;4949988;28;20044;-82
2022/11/01 09:54:31;;;;;;;21.73;4.95;;;;;;;;;;4960449;28;20089;-81
2022/11/01 09:57:00;;;;;;;17.63;4.25;;;;;;;;;;4953572;28;20043;-81
2022/11/01 09:59:29;;;;;;;16.23;4.05;;;;;;;;;;4943728;28;20055;-81
2022/11/01 10:02:18;;;;;;;16.65;4.78;;;;;;;;;;4953098;28;20090;-81
2022/11/01 10:04:44;;;;;;;14.05;3.67;;;;;;;;;;4972776;28;20051;-82
2022/11/01 10:07:16;;;;;;;19.42;4.50;;;;;;;;;;4944255;28;20047;-80
2022/11/01 10:09:49;;;;;;;14.40;4.68;;;;;;;;;;4943393;28;20046;-82
2022/11/01 10:12:15;;;;;;;17.42;4.25;;;;;;;;;;4946458;28;20047;-81
2022/11/01 10:15:04;;;;;;;15.30;4.28;;;;;;;;;;4941404;28;20470;-82
2022/11/01 10:17:33;;;;;;;17.40;4.93;;;;;;;;;;4935978;28;20048;-82
2022/11/01 10:20:00;;;;;;;12.65;4.10;;;;;;;;;;4949643;28;20106;-81
2022/11/01 10:22:33;;;;;;;19.63;4.78;;;;;;;;;;4939927;28;20055;-80
2022/11/01 10:24:59;;;;;;;;;;;;;;;;;;4940785;28;20133;-80
2022/11/01 10:27:32;;;;;;;16.65;4.43;;;;;;;;;;4957787;28;20119;-80
2022/11/01 10:30:11;;;;;;;19.63;4.93;;;;;;;;;;4949372;28;20046;-79
2022/11/01 10:32:40;;;;;;;16.73;4.53;;;;;;;;;;4947727;28;20102;-80
2022/11/01 10:35:13;;;;;;;15.30;4.25;;;;;;;;;;4938334;29;20127;-80
2022/11/01 10:37:40;;;;;;;12.23;3.80;;;;;;;;;;4948575;28;20098;-80
2022/11/01 10:40:12;;;;;;;13.95;4.25;;;;;;;;;;4986767;28;20055;-79
2022/11/01 10:42:38;;;;;;;12.85;3.97;;;;;;;;;;4975391;28;20047;-80
2022/11/01 10:45:07;;;;;;;15.05;4.20;;;;;;;;;;4950305;29;20488;-80
2022/11/01 10:47:34;;;;;;;13.10;4.03;;;;;;;;;;4955518;28;20047;-80
2022/11/01 10:50:14;;;;;;;14.43;4.15;;;;;;;;;;4943471;28;20044;-80
2022/11/01 10:52:49;;;;;;;16.10;3.90;;;;;;;;;;4939149;29;20039;-80
2022/11/01 10:55:19;;;;;;;14.70;3.80;;;;;;;;;;4973489;28;20051;-81
2022/11/01 10:57:48;;;;;;;13.00;3.58;;;;;;;;;;4982045;28;20115;-80
2022/11/01 11:00:16;;;;;;;19.88;3.90;;;;;;;;;;4937072;28;20047;-80
2022/11/01 11:02:44;;;;;;;15.02;4.00;;;;;;;;;;4979090;28;20047;-80
2022/11/01 11:05:13;;;;;;;15.68;3.78;;;;;;;;;;4982606;28;20477;-80
2022/11/01 11:07:40;;;;;;;14.77;3.78;;;;;;;;;;4940206;28;20055;-80
2022/11/01 11:10:16;;;;;;;15.50;4.05;;;;;;;;;;4942897;28;20051;-80
2022/11/01 11:12:43;;;;;;;13.02;4.07;;;;;;;;;;4948861;28;20075;-81
2022/11/01 11:15:21;;;;;;;13.90;3.90;;;;;;;;;;4947989;28;20134;-80
2022/11/01 11:17:50;;;;;;;17.63;3.65;;;;;;;;;;4943577;29;20635;-80
2022/11/01 11:20:20;;;;;;;12.63;3.67;;;;;;;;;;4942737;29;20067;-80
2022/11/01 11:22:46;;;;;;;12.63;4.28;;;;;;;;;;4952583;29;20043;-80
2022/11/01 11:25:17;;;;;;;16.48;4.20;;;;;;;;;;4950957;28;20039;-78
2022/11/01 11:27:46;;;;;;;15.55;4.13;;;;;;;;;;4935936;29;20404;-79
2022/11/01 11:30:13;;;;;;;11.27;3.35;;;;;;;;;;4940068;28;20449;-79
2022/11/01 11:32:46;;;;;;;11.57;3.60;;;;;;;;;;4959643;28;20408;-80
2022/11/01 11:35:23;;;;;;;16.50;4.00;;;;;;;;;;4935088;29;20502;-79
2022/11/01 11:37:54;;;;;;;14.63;4.00;;;;;;;;;;4934287;29;20055;-78
2022/11/01 11:40:24;;;;;;;10.82;3.50;;;;;;;;;;4944620;28;20395;-79
2022/11/01 11:43:10;;;;;;;10.43;3.50;;;;;;;;;;4962368;28;20086;-80
2022/11/01 11:45:38;;;;;;;16.75;3.90;;;;;;;;;;4944524;28;20056;-79
2022/11/01 11:48:14;;;;;;;14.65;3.50;;;;;;;;;;4945673;28;20102;-79
2022/11/01 11:50:41;;;;;;;16.55;4.22;;;;;;;;;;4953338;28;20078;-78
2022/11/01 11:53:20;;;;;;;17.10;4.32;;;;;;;;;;4957532;28;20054;-78
2022/11/01 11:55:55;;;;;;;16.25;4.10;;;;;;;;;;4960078;28;20122;-78
2022/11/01 11:58:21;;;;;;;11.27;3.60;;;;;;;;;;4951705;28;20051;-80
2022/11/01 12:00:48;;;;;;;14.27;3.85;;;;;;;;;;4967454;28;20065;-79
2022/11/01 12:03:16;;;;;;;12.57;4.28;;;;;;;;;;4939113;29;20052;-79
2022/11/01 12:05:53;;;;;;;13.32;3.72;;;;;;;;;;4976876;28;20094;-79
2022/11/01 12:08:24;;;;;;;14.18;3.92;;;;;;;;;;4978144;28;20039;-79
2022/11/01 12:10:56;;;;;;;11.10;3.85;;;;;;;;;;4956227;28;20051;-78
2022/11/01 12:13:25;;;;;;;10.50;3.63;;;;;;;;;;4964746;28;20165;-79
2022/11/01 12:16:06;;;;;;;11.93;3.83;;;;;;;;;;4995254;28;20395;-77
2022/11/01 12:18:32;;;;;;;13.45;3.80;;;;;;;;;;4954751;28;20462;-78
2022/11/01 12:20:58;;;;;;;12.88;4.03;;;;;;;;;;4955240;28;20130;-81
2022/11/01 12:23:32;;;;;;;19.55;4.22;;;;;;;;;;4956421;28;20046;-80
2022/11/01 12:25:59;;;;;;;16.35;4.25;;;;;;;;;;4963416;28;20043;-78
2022/11/01 12:28:29;;;;;;;16.02;4.07;;;;;;;;;;4979562;28;20051;-77
2022/11/01 12:30:58;;;;;;;10.50;3.45;;;;;;;;;;4953951;28;20046;-78
2022/11/01 12:33:28;;;;;;;12.80;3.67;;;;;;;;;;4966489;28;20091;-77
2022/11/01 12:35:58;;;;;;;15.43;3.80;;;;;;;;;;4933476;28;20047;-78
2022/11/01 12:38:42;;;;;;;13.82;4.13;;;;;;;;;;4943197;28;20055;-78
2022/11/01 12:41:14;;;;;;;15.05;3.45;;;;;;;;;;4948016;28;20496;-77
2022/11/01 12:43:51;;;;;;;13.32;3.85;;;;;;;;;;4957298;28;20105;-79
2022/11/01 12:46:24;;;;;;;10.93;3.53;;;;;;;;;;4952793;28;20134;-78
2022/11/01 12:48:56;;;;;;;11.73;3.53;;;;;;;;;;4952246;28;20040;-78
2022/11/01 12:51:25;;;;;;;15.13;3.80;;;;;;;;;;4966298;28;20380;-78
2022/11/01 12:54:00;;;;;;;12.65;3.42;;;;;;;;;;4946222;28;20035;-78
2022/11/01 12:56:26;;;;;;;12.60;3.70;;;;;;;;;;4983939;28;20050;-80
2022/11/01 12:58:54;;;;;;;12.38;3.15;;;;;;;;;;4955528;28;20047;-79
2022/11/01 13:01:52;;;;;;;11.45;3.53;;;;;;;;;;4953008;28;20138;-77
2022/11/01 13:04:29;;;;;;;12.18;3.60;;;;;;;;;;4926293;29;20059;-77
2022/11/01 13:07:13;;;;;;;13.00;3.63;;;;;;;;;;4946331;28;20054;-77
2022/11/01 13:09:39;;;;;;;9.80;2.95;;;;;;;;;;4962928;28;20048;-77
2022/11/01 13:12:29;;;;;;;10.07;3.35;;;;;;;;;;4955877;28;20043;-78
2022/11/01 13:14:55;;;;;;;11.55;3.58;;;;;;;;;;4951901;28;20055;-79
2022/11/01 13:17:37;;;;;;;10.80;3.30;;;;;;;;;;4964749;28;20138;-79
2022/11/01 13:20:21;;;;;;;11.50;3.25;;;;;;;;;;4959167;28;20056;-79
2022/11/01 13:23:05;;;;;;;7.22;2.85;;;;;;;;;;4966405;28;20046;-78
2022/11/01 13:25:37;;;;;;;8.25;2.92;;;;;;;;;;4949867;28;20066;-78
2022/11/01 13:28:15;;;;;;;9.52;2.78;;;;;;;;;;4958815;28;20055;-79
2022/11/01 13:30:46;;;;;;;9.57;2.65;;;;;;;;;;4944280;28;20098;-79
2022/11/01 13:33:20;;;;;;;7.97;2.47;;;;;;;;;;4957038;28;20399;-79
2022/11/01 13:35:58;;;;;;;7.88;2.47;;;;;;;;;;4969450;28;20500;-79
2022/11/01 13:38:34;;;;;;;9.70;2.55;;;;;;;;;;4951097;29;20443;-80
2022/11/01 13:41:00;;;;;;;7.63;2.58;;;;;;;;;;4956964;29;20189;-80
2022/11/01 13:43:37;;;;;;;9.98;2.83;;;;;;;;;;4950325;28;20134;-79
2022/11/01 13:46:06;;;;;;;9.13;2.70;;;;;;;;;;4953685;28;20406;-78
2022/11/01 13:48:38;;;;;;;7.93;2.50;;;;;;;;;;4973082;28;20051;-80
2022/11/01 13:51:04;;;;;;;5.28;2.40;;;;;;;;;;4973699;28;20063;-78
2022/11/01 13:53:30;;;;;;;7.00;2.40;;;;;;;;;;4975435;28;20057;-79
2022/11/01 13:56:10;;;;;;;5.05;2.15;;;;;;;;;;4949303;28;20488;-79
2022/11/01 13:58:36;;;;;;;6.75;2.95;;;;;;;;;;4953943;29;20055;-80
2022/11/01 14:01:21;;;;;;;7.63;2.53;;;;;;;;;;4965688;28;20058;-79
2022/11/01 14:03:47;;;;;;;8.55;2.83;;;;;;;;;;4934851;28;20063;-79
2022/11/01 14:06:27;;;;;;;7.47;2.42;;;;;;;;;;4968640;28;20051;-79
2022/11/01 14:09:12;;;;;;;8.00;2.78;;;;;;;;;;4944380;28;20059;-79
2022/11/01 14:11:41;;;;;;;8.60;2.45;;;;;;;;;;4947787;28;20047;-77
2022/11/01 14:14:39;;;;;;;9.45;2.40;;;;;;;;;;4980133;28;20553;-79
2022/11/01 14:17:22;;;;;;;6.40;2.28;;;;;;;;;;4935134;28;20059;-77
2022/11/01 14:19:49;;;;;;;4.75;2.45;;;;;;;;;;4941791;28;20051;-78
2022/11/01 14:22:24;;;;;;;6.72;2.50;;;;;;;;;;4967259;28;20055;-79
2022/11/01 14:24:55;;;;;;;7.15;2.40;;;;;;;;;;4965048;28;20455;-79
2022/11/01 14:27:32;;;;;;;7.88;2.58;;;;;;;;;;4963211;28;20097;-79
2022/11/01 14:29:59;;;;;;;8.18;2.80;;;;;;;;;;4963417;28;20119;-79
2022/11/01 14:32:26;;;;;;;5.82;2.28;;;;;;;;;;4984897;28;20055;-78
2022/11/01 14:35:01;;;;;;;8.95;2.70;;;;;;;;;;4952671;28;20444;-77
2022/11/01 14:37:29;;;;;;;5.28;2.22;;;;;;;;;;4950122;28;20044;-78
2022/11/01 14:39:58;;;;;;;7.28;2.22;;;;;;;;;;4969589;28;20086;-78
2022/11/01 14:42:28;;;;;;;11.80;2.90;;;;;;;;;;4943018;28;20053;-79
2022/11/01 14:44:55;;;;;;;8.02;2.60;;;;;;;;;;4945743;28;20100;-79
2022/11/01 14:47:24;;;;;;;10.80;2.90;;;;;;;;;;4944013;28;21363;-79
2022/11/01 14:49:52;;;;;;;7.72;2.60;;;;;;;;;;4944770;28;20107;-79